createdAt,value
2023-04-06T03:01:16.439Z,4.00
2023-04-06T03:03:45.746Z,3.80
2023-04-06T03:06:21.700Z,3.60
2023-04-06T03:08:53.389Z,3.60
2023-04-06T03:11:22.336Z,3.50
2023-04-06T03:13:52.433Z,3.50
2023-04-06T03:16:21.853Z,3.50
2023-04-06T03:18:50.341Z,3.50
2023-04-06T03:21:18.336Z,3.40
2023-04-06T03:23:52.310Z,3.40
2023-04-06T03:26:20.366Z,3.40
2023-04-06T03:28:48.317Z,3.30
2023-04-06T03:31:19.120Z,3.30
2023-04-06T03:33:55.921Z,3.40
2023-04-06T03:36:28.090Z,3.30
2023-04-06T03:38:58.142Z,3.20
2023-04-06T03:41:27.717Z,3.20
2023-04-06T03:44:07.841Z,2.90
2023-04-06T03:46:39.840Z,2.90
2023-04-06T03:49:09.251Z,3.00
2023-04-06T03:51:37.355Z,3.00
2023-04-06T03:54:05.599Z,3.00
2023-04-06T03:56:33.517Z,3.20
2023-04-06T03:59:02.732Z,3.20
2023-04-06T04:01:30.693Z,3.20
2023-04-06T04:03:58.651Z,3.20
2023-04-06T04:06:27.985Z,3.20
2023-04-06T04:08:57.947Z,3.10
2023-04-06T04:11:25.775Z,3.00
2023-04-06T04:13:59.054Z,3.00
2023-04-06T04:16:26.973Z,3.10
2023-04-06T04:18:54.918Z,3.10
2023-04-06T04:21:31.648Z,3.00
2023-04-06T04:24:01.958Z,3.00
2023-04-06T04:26:31.865Z,3.00
2023-04-06T04:28:59.733Z,3.00
2023-04-06T04:31:28.662Z,3.10
2023-04-06T04:34:02.650Z,3.20
2023-04-06T04:36:37.006Z,3.30
2023-04-06T04:39:09.301Z,3.30
2023-04-06T04:41:42.149Z,3.20
2023-04-06T04:44:12.858Z,3.10
2023-04-06T04:46:42.391Z,3.00
2023-04-06T04:49:12.964Z,2.90
2023-04-06T04:51:43.710Z,2.90
2023-04-06T04:54:20.994Z,3.00
2023-04-06T04:56:48.858Z,2.90
2023-04-06T04:59:45.923Z,2.90
2023-04-06T05:02:19.610Z,2.90
2023-04-06T05:04:59.013Z,3.00
2023-04-06T05:07:30.023Z,2.90
2023-04-06T05:10:00.348Z,3.00
2023-04-06T05:12:31.769Z,3.10
2023-04-06T05:15:12.728Z,3.20
2023-04-06T05:17:41.032Z,3.20
2023-04-06T05:20:13.213Z,3.10
2023-04-06T05:22:49.007Z,3.10
2023-04-06T05:25:17.456Z,3.10
2023-04-06T05:27:47.226Z,3.00
2023-04-06T05:30:41.416Z,2.90
2023-04-06T05:33:11.939Z,2.90
2023-04-06T05:35:57.176Z,3.00
2023-04-06T05:38:26.742Z,2.90
2023-04-06T05:40:57.109Z,2.80
2023-04-06T05:43:31.416Z,2.90
2023-04-06T05:46:01.350Z,2.90
2023-04-06T05:48:31.310Z,3.00
2023-04-06T05:51:01.889Z,3.00
2023-04-06T05:53:42.992Z,3.10
2023-04-06T05:56:17.421Z,3.10
2023-04-06T05:58:45.917Z,3.20
2023-04-06T06:01:17.262Z,3.30
2023-04-06T06:03:48.039Z,3.40
2023-04-06T06:06:16.676Z,3.40
2023-04-06T06:09:00.025Z,3.50
2023-04-06T06:11:28.006Z,3.60
2023-04-06T06:14:00.145Z,3.60
2023-04-06T06:16:28.350Z,3.70
2023-04-06T06:18:56.570Z,3.80
2023-04-06T06:21:24.617Z,3.80
2023-04-06T06:23:59.381Z,3.80
2023-04-06T06:26:33.588Z,3.80
2023-04-06T06:29:07.194Z,3.80
2023-04-06T06:31:37.884Z,4.00
2023-04-06T06:34:09.929Z,4.10
2023-04-06T06:36:40.006Z,4.10
2023-04-06T06:39:12.152Z,4.20
2023-04-06T06:41:41.202Z,4.10
2023-04-06T06:44:10.579Z,4.10
2023-04-06T06:46:45.715Z,4.20
2023-04-06T06:49:15.144Z,4.30
2023-04-06T06:51:43.002Z,4.30
2023-04-06T06:54:12.399Z,4.40
2023-04-06T06:56:40.344Z,4.50
2023-04-06T06:59:09.457Z,4.60
2023-04-06T07:01:47.600Z,4.60
2023-04-06T07:04:41.084Z,4.70
2023-04-06T07:07:09.365Z,4.60
2023-04-06T07:09:38.641Z,4.70
2023-04-06T07:12:08.541Z,4.80
2023-04-06T07:14:38.586Z,4.90
2023-04-06T07:17:07.699Z,5.00
2023-04-06T07:20:01.023Z,5.10
2023-04-06T07:22:28.836Z,5.10
2023-04-06T07:24:59.001Z,5.30
2023-04-06T07:27:28.140Z,5.40
2023-04-06T07:29:56.594Z,5.40
2023-04-06T07:32:27.353Z,5.40
2023-04-06T07:34:58.111Z,5.60
2023-04-06T07:37:30.688Z,5.80
2023-04-06T07:40:01.904Z,5.90
2023-04-06T07:42:34.889Z,6.00
2023-04-06T07:45:06.953Z,6.10
2023-04-06T07:47:47.492Z,6.20
2023-04-06T07:50:18.016Z,6.30
2023-04-06T07:53:01.484Z,6.40
2023-04-06T07:55:31.654Z,6.50
2023-04-06T07:57:59.755Z,6.60
2023-04-06T08:00:32.337Z,6.70
2023-04-06T08:03:00.392Z,6.80
2023-04-06T08:05:28.450Z,6.90
2023-04-06T08:07:56.302Z,6.90
2023-04-06T08:10:24.167Z,6.90
2023-04-06T08:12:53.925Z,7.00
2023-04-06T08:15:21.966Z,7.00
2023-04-06T08:17:50.198Z,7.20
2023-04-06T08:20:19.219Z,7.00
2023-04-06T08:22:53.857Z,7.20
2023-04-06T08:25:26.130Z,7.20
2023-04-06T08:27:55.307Z,7.30
2023-04-06T08:30:23.324Z,7.40
2023-04-06T08:32:55.376Z,7.40
2023-04-06T08:35:23.500Z,7.60
2023-04-06T08:38:01.226Z,7.70
2023-04-06T08:40:29.503Z,7.70
2023-04-06T08:43:02.964Z,7.70
2023-04-06T08:45:31.259Z,7.60
2023-04-06T08:48:02.726Z,7.70
2023-04-06T08:50:32.000Z,7.80
2023-04-06T08:53:02.949Z,7.90
2023-04-06T08:55:32.373Z,8.10
2023-04-06T08:58:04.549Z,8.20
2023-04-06T09:00:32.814Z,8.30
2023-04-06T09:03:01.423Z,8.40
2023-04-06T09:05:30.769Z,8.40
2023-04-06T09:08:02.744Z,8.50
2023-04-06T09:10:31.450Z,8.50
2023-04-06T09:13:07.637Z,8.60
2023-04-06T09:15:37.067Z,8.50
2023-04-06T09:18:04.969Z,8.60
2023-04-06T09:20:33.054Z,8.80
2023-04-06T09:23:00.979Z,9.00
2023-04-06T09:25:29.033Z,9.10
2023-04-06T09:28:03.989Z,9.10
2023-04-06T09:30:33.359Z,9.30
2023-04-06T09:33:01.398Z,9.50
2023-04-06T09:35:31.295Z,9.60
2023-04-06T09:37:59.215Z,9.80
2023-04-06T09:40:27.165Z,9.90
2023-04-06T09:42:58.287Z,10.00
2023-04-06T09:45:26.992Z,10.30
2023-04-06T09:47:57.449Z,10.60
2023-04-06T09:50:27.339Z,10.90
2023-04-06T09:52:57.993Z,11.10
2023-04-06T09:55:32.417Z,11.30
2023-04-06T09:58:06.025Z,11.60
2023-04-06T10:00:36.579Z,11.80
2023-04-06T10:03:16.678Z,12.10
2023-04-06T10:05:48.416Z,12.40
2023-04-06T10:08:17.128Z,12.60
2023-04-06T10:10:45.333Z,12.80
2023-04-06T10:13:13.866Z,13.10
2023-04-06T10:15:41.998Z,13.40
2023-04-06T10:18:11.410Z,13.50
2023-04-06T10:20:43.982Z,13.70
2023-04-06T10:23:17.086Z,13.90
2023-04-06T10:25:55.029Z,14.10
2023-04-06T10:28:23.295Z,14.10
2023-04-06T10:30:51.404Z,14.30
2023-04-06T10:33:22.110Z,14.30
2023-04-06T10:35:50.197Z,14.20
2023-04-06T10:38:22.655Z,14.30
2023-04-06T10:40:50.810Z,14.20
2023-04-06T10:43:22.755Z,14.20
2023-04-06T10:45:58.327Z,14.30
2023-04-06T10:48:37.833Z,14.40
2023-04-06T10:51:10.267Z,14.40
2023-04-06T10:53:38.130Z,14.10
2023-04-06T10:56:11.142Z,14.20
2023-04-06T10:58:39.195Z,14.40
2023-04-06T11:01:07.490Z,14.60
2023-04-06T11:03:45.565Z,14.30
2023-04-06T11:06:20.139Z,14.00
2023-04-06T11:08:48.109Z,14.00
2023-04-06T11:11:19.157Z,13.90
2023-04-06T11:13:50.990Z,13.90
2023-04-06T11:16:20.441Z,13.80
2023-04-06T11:18:55.004Z,13.50
2023-04-06T11:21:36.270Z,13.20
2023-04-06T11:24:08.936Z,12.90
2023-04-06T11:26:41.432Z,12.80
2023-04-06T11:29:09.737Z,12.80
2023-04-06T11:31:44.312Z,13.00
2023-04-06T11:34:14.748Z,13.30
2023-04-06T11:36:43.982Z,13.70
2023-04-06T11:39:12.260Z,14.10
2023-04-06T11:41:40.398Z,14.30
2023-04-06T11:44:08.631Z,14.40
2023-04-06T11:46:36.586Z,14.60
2023-04-06T11:49:04.799Z,14.90
2023-04-06T11:51:37.993Z,15.70
2023-04-06T11:54:05.931Z,16.20
2023-04-06T11:56:33.836Z,16.20
2023-04-06T11:59:01.690Z,16.40
2023-04-06T12:01:30.875Z,16.20
2023-04-06T12:03:59.482Z,16.40
2023-04-06T12:06:27.529Z,16.60
2023-04-06T12:08:56.767Z,16.70
2023-04-06T12:11:24.668Z,16.60
2023-04-06T12:13:52.486Z,16.40
2023-04-06T12:16:21.234Z,16.60
2023-04-06T12:18:49.342Z,16.90
2023-04-06T12:21:17.209Z,16.50
2023-04-06T12:23:45.083Z,16.40
2023-04-06T12:26:14.294Z,16.40
2023-04-06T12:28:42.137Z,16.00
2023-04-06T12:31:16.073Z,15.40
2023-04-06T12:33:45.793Z,15.30
2023-04-06T12:36:14.664Z,15.50
2023-04-06T12:38:42.894Z,15.80
2023-04-06T12:41:10.925Z,15.80
2023-04-06T12:43:41.176Z,15.80
2023-04-06T12:46:09.169Z,15.70
2023-04-06T12:48:37.419Z,15.70
2023-04-06T12:51:07.031Z,15.80
2023-04-06T12:53:36.381Z,15.80
2023-04-06T12:56:12.185Z,15.70
2023-04-06T12:58:42.755Z,15.60
2023-04-06T13:01:11.742Z,15.40
2023-04-06T13:03:39.673Z,15.60
2023-04-06T13:06:09.201Z,15.80
2023-04-06T13:08:38.116Z,16.00
2023-04-06T13:11:09.006Z,15.90
2023-04-06T13:13:37.611Z,15.80
2023-04-06T13:16:09.273Z,16.00
2023-04-06T13:18:39.510Z,16.00
2023-04-06T13:21:08.067Z,15.90
2023-04-06T13:23:36.276Z,15.80
2023-04-06T13:26:06.207Z,15.80
2023-04-06T13:28:35.491Z,15.50
2023-04-06T13:31:04.426Z,15.20
2023-04-06T13:33:33.647Z,15.10
2023-04-06T13:36:01.919Z,15.20
2023-04-06T13:38:30.267Z,15.10
2023-04-06T13:40:58.604Z,15.00
2023-04-06T13:43:27.844Z,15.10
2023-04-06T13:45:58.953Z,15.10
2023-04-06T13:48:27.269Z,14.90
2023-04-06T13:50:56.548Z,15.00
2023-04-06T13:53:24.457Z,15.10
2023-04-06T13:55:56.044Z,15.00
2023-04-06T13:58:23.939Z,14.80
2023-04-06T14:00:51.958Z,14.60
2023-04-06T14:03:20.355Z,14.50
2023-04-06T14:05:48.433Z,14.50
2023-04-06T14:08:17.612Z,14.60
2023-04-06T14:10:45.477Z,14.70
2023-04-06T14:13:13.362Z,14.80
2023-04-06T14:15:41.290Z,14.80
2023-04-06T14:18:09.890Z,14.60
2023-04-06T14:20:37.810Z,14.50
2023-04-06T14:23:05.987Z,14.60
2023-04-06T14:25:35.825Z,14.70
2023-04-06T14:28:03.923Z,14.60
2023-04-06T14:30:32.350Z,14.50
2023-04-06T14:33:01.286Z,14.60
2023-04-06T14:35:29.437Z,14.80
2023-04-06T14:37:59.090Z,14.80
2023-04-06T14:40:27.155Z,14.80
2023-04-06T14:42:57.478Z,14.80
2023-04-06T14:45:25.408Z,14.70
2023-04-06T14:47:53.316Z,14.70
2023-04-06T14:50:21.245Z,14.80
2023-04-06T14:52:49.089Z,14.70
2023-04-06T14:55:17.079Z,14.50
2023-04-06T14:57:45.008Z,14.30
2023-04-06T15:00:15.653Z,14.30
2023-04-06T15:02:44.200Z,14.20
2023-04-06T15:05:12.691Z,14.00
2023-04-06T15:07:40.508Z,13.90
2023-04-06T15:10:10.915Z,13.90
2023-04-06T15:12:40.562Z,13.90
2023-04-06T15:15:09.308Z,13.80
2023-04-06T15:17:38.662Z,13.70
2023-04-06T15:20:07.672Z,13.70
2023-04-06T15:22:35.576Z,13.70
2023-04-06T15:25:03.602Z,13.70
2023-04-06T15:27:31.612Z,13.70
2023-04-06T15:30:00.440Z,13.70
2023-04-06T15:32:28.496Z,13.60
2023-04-06T15:34:59.818Z,13.60
2023-04-06T15:37:29.073Z,13.70
2023-04-06T15:39:57.277Z,13.50
2023-04-06T15:42:26.286Z,13.50
2023-04-06T15:44:54.120Z,13.50
2023-04-06T15:47:22.079Z,13.50
2023-04-06T15:49:49.914Z,13.40
2023-04-06T15:52:18.232Z,13.40
2023-04-06T15:54:47.664Z,13.40
2023-04-06T15:57:15.557Z,13.40
2023-04-06T15:59:43.461Z,13.30
2023-04-06T16:02:11.375Z,13.20
2023-04-06T16:04:39.462Z,13.10
2023-04-06T16:07:07.488Z,13.20
2023-04-06T16:09:35.743Z,13.10
2023-04-06T16:12:05.566Z,12.80
2023-04-06T16:14:33.499Z,12.70
2023-04-06T16:17:01.308Z,12.60
2023-04-06T16:19:29.211Z,12.70
2023-04-06T16:21:57.684Z,12.70
2023-04-06T16:24:25.685Z,12.70
2023-04-06T16:26:53.652Z,12.70
2023-04-06T16:29:23.100Z,12.60
2023-04-06T16:31:51.021Z,12.50
2023-04-06T16:34:18.892Z,12.50
2023-04-06T16:36:46.808Z,12.50
2023-04-06T16:39:14.716Z,12.50
2023-04-06T16:41:42.598Z,12.40
2023-04-06T16:44:11.277Z,12.40
2023-04-06T16:46:41.394Z,12.30
2023-04-06T16:49:09.223Z,12.30
2023-04-06T16:51:37.637Z,12.40
2023-04-06T16:54:06.122Z,12.30
2023-04-06T16:56:34.085Z,12.20
2023-04-06T16:59:01.938Z,12.20
2023-04-06T17:01:30.416Z,12.10
2023-04-06T17:03:59.856Z,12.00
2023-04-06T17:06:28.077Z,12.10
2023-04-06T17:08:56.246Z,12.10
2023-04-06T17:11:32.823Z,12.00
2023-04-06T17:14:13.107Z,11.90
2023-04-06T17:16:41.120Z,11.90
2023-04-06T17:19:10.412Z,11.80
2023-04-06T17:21:40.003Z,11.70
2023-04-06T17:24:08.580Z,11.60
2023-04-06T17:26:36.388Z,11.50
2023-04-06T17:29:04.680Z,11.50
2023-04-06T17:31:32.505Z,11.40
2023-04-06T17:34:00.775Z,11.40
2023-04-06T17:36:30.003Z,11.40
2023-04-06T17:38:57.837Z,11.40
2023-04-06T17:41:26.551Z,11.30
2023-04-06T17:43:54.359Z,11.30
2023-04-06T17:46:24.650Z,11.30
2023-04-06T17:48:53.169Z,11.30
2023-04-06T17:51:21.405Z,11.30
2023-04-06T17:53:50.821Z,11.10
2023-04-06T17:56:18.780Z,11.00
2023-04-06T17:58:46.668Z,10.80
2023-04-06T18:01:14.611Z,10.80
2023-04-06T18:03:42.750Z,10.80
2023-04-06T18:06:11.818Z,10.70
2023-04-06T18:08:39.841Z,10.60
2023-04-06T18:11:11.725Z,10.30
2023-04-06T18:13:40.344Z,10.20
2023-04-06T18:16:08.514Z,10.10
2023-04-06T18:18:38.819Z,10.00
2023-04-06T18:21:07.617Z,9.90
2023-04-06T18:23:37.018Z,9.80
2023-04-06T18:26:05.583Z,9.70
2023-04-06T18:28:35.430Z,9.70
2023-04-06T18:31:03.395Z,9.70
2023-04-06T18:33:32.350Z,9.70
2023-04-06T18:36:00.272Z,9.50
2023-04-06T18:38:28.331Z,9.40
2023-04-06T18:40:56.284Z,9.40
2023-04-06T18:43:25.051Z,9.40
2023-04-06T18:45:54.263Z,9.30
2023-04-06T18:48:22.109Z,9.30
2023-04-06T18:50:53.805Z,9.30
2023-04-06T18:53:22.397Z,9.30
2023-04-06T18:55:51.452Z,9.20
2023-04-06T18:58:19.301Z,9.30
2023-04-06T19:00:47.173Z,9.20
2023-04-06T19:03:17.257Z,9.10
2023-04-06T19:05:46.573Z,9.10
2023-04-06T19:08:14.429Z,9.20
2023-04-06T19:10:42.501Z,9.20
2023-04-06T19:13:10.796Z,9.20
2023-04-06T19:15:41.962Z,9.20
2023-04-06T19:18:14.422Z,9.30
2023-04-06T19:20:43.609Z,9.20
2023-04-06T19:23:11.522Z,9.30
2023-04-06T19:25:40.601Z,9.30
2023-04-06T19:28:10.590Z,9.30
2023-04-06T19:30:39.016Z,9.40
2023-04-06T19:33:06.904Z,9.40
2023-04-06T19:35:35.051Z,9.40
2023-04-06T19:38:04.378Z,9.50
2023-04-06T19:40:32.266Z,9.50
2023-04-06T19:43:00.131Z,9.50
2023-04-06T19:45:29.727Z,9.50
2023-04-06T19:47:57.632Z,9.50
2023-04-06T19:50:25.718Z,9.60
2023-04-06T19:52:55.692Z,9.60
2023-04-06T19:55:24.889Z,9.60
2023-04-06T19:57:52.729Z,9.50
2023-04-06T20:00:20.877Z,9.40
2023-04-06T20:02:48.841Z,9.40
2023-04-06T20:05:16.995Z,9.40
2023-04-06T20:07:45.773Z,9.30
2023-04-06T20:10:14.338Z,9.30
2023-04-06T20:12:45.136Z,9.20
2023-04-06T20:15:13.812Z,9.20
2023-04-06T20:17:42.822Z,9.20
2023-04-06T20:20:12.579Z,9.20
2023-04-06T20:22:40.724Z,9.10
2023-04-06T20:25:10.380Z,9.20
2023-04-06T20:27:38.246Z,9.10
2023-04-06T20:30:08.973Z,9.10
2023-04-06T20:32:36.824Z,9.10
2023-04-06T20:35:04.958Z,9.10
2023-04-06T20:37:32.848Z,9.10
2023-04-06T20:40:01.019Z,9.00
2023-04-06T20:42:28.914Z,9.00
2023-04-06T20:44:56.994Z,8.90
2023-04-06T20:47:27.160Z,8.90
2023-04-06T20:49:55.370Z,8.90
2023-04-06T20:52:23.291Z,9.00
2023-04-06T20:54:51.467Z,9.00
2023-04-06T20:57:19.644Z,8.90
2023-04-06T20:59:47.557Z,8.90
2023-04-06T21:02:15.590Z,8.90
2023-04-06T21:04:45.485Z,9.10
2023-04-06T21:07:13.426Z,9.10
2023-04-06T21:09:42.033Z,9.10
2023-04-06T21:12:09.936Z,9.10
2023-04-06T21:14:38.030Z,9.10
2023-04-06T21:17:05.921Z,9.10
2023-04-06T21:19:33.759Z,9.10
2023-04-06T21:22:03.304Z,9.10
2023-04-06T21:24:31.152Z,9.10
2023-04-06T21:26:59.021Z,9.20
2023-04-06T21:29:26.910Z,9.10
2023-04-06T21:31:55.644Z,9.20
2023-04-06T21:34:23.588Z,9.10
2023-04-06T21:36:51.518Z,9.10
2023-04-06T21:39:20.762Z,9.20
2023-04-06T21:41:48.591Z,9.10
2023-04-06T21:44:16.516Z,9.10
2023-04-06T21:46:44.434Z,9.10
2023-04-06T21:49:12.318Z,9.10
2023-04-06T21:51:41.612Z,9.20
2023-04-06T21:54:09.440Z,9.20
2023-04-06T21:56:39.180Z,9.20
2023-04-06T21:59:07.129Z,9.20
